.
WxDataArchive / Data Records for 2008-11-05
2008-11-04 November 2008 2008-11-06

Data Records for Wednesday, 05 November 2008

Time	Temp	Chill	HIndex	Humid	Dewpt	 Wind 	HiWind	WindDir	Rain 	Barom 
-----	----	-----	------	-----	-----	------	------	-------	-----	----- 
00:00	42.8	42.8	42.8	87	39.2	0	0	---	0.00	30.072 
00:05	42.8	42.8	42.8	87	39.2	0	0	---	0.00	30.070 
00:10	42.8	42.8	42.8	87	39.2	0	0	---	0.00	30.068 
00:15	42.6	42.6	42.6	87	39.0	0	0	---	0.00	30.067 
00:20	42.6	42.6	42.6	87	39.0	0	0	---	0.00	30.065 
00:25	42.5	42.5	42.5	87	38.9	0	0	---	0.00	30.065 
00:30	42.5	42.5	42.5	87	38.9	0	0	---	0.00	30.064 
00:35	42.5	42.5	42.5	88	39.2	0	0	---	0.00	30.063 
00:40	42.3	42.3	42.3	88	39.0	0	0	---	0.00	30.064 
00:45	42.3	42.3	42.3	88	39.0	0	0	---	0.00	30.064 
00:50	42.2	42.2	42.2	88	38.9	0	0	---	0.00	30.064 
00:55	42.2	42.2	42.2	88	38.9	0	0	---	0.00	30.064 
01:00	42.1	42.1	42.1	89	39.1	0	0	---	0.00	30.060 
01:05	42.1	42.1	42.1	89	39.1	0	0	---	0.00	30.059 
01:10	42.1	42.1	42.1	89	39.1	0	0	---	0.00	30.059 
01:15	42.1	42.1	42.1	90	39.4	0	0	---	0.00	30.058 
01:20	41.9	41.9	41.9	90	39.2	0	0	---	0.00	30.058 
01:25	41.8	41.8	41.8	90	39.1	0	0	---	0.00	30.057 
01:30	41.6	41.6	41.6	90	38.9	0	0	---	0.00	30.057 
01:35	41.6	41.6	41.6	90	38.9	0	0	---	0.00	30.057 
01:40	41.5	41.5	41.5	90	38.8	0	0	---	0.00	30.057 
01:45	41.3	41.3	41.3	90	38.6	0	0	---	0.00	30.057 
01:50	41.2	41.2	41.2	90	38.5	0	0	---	0.00	30.057 
01:55	41.2	41.2	41.2	90	38.5	0	0	---	0.00	30.058 
02:00	41.1	41.1	41.1	91	38.7	0	0	---	0.00	30.059 
02:05	41.1	41.1	41.1	91	38.7	0	0	---	0.00	30.059 
02:10	41.1	41.1	41.1	91	38.7	0	0	---	0.00	30.059 
02:15	40.9	40.9	40.9	91	38.5	0	0	---	0.00	30.059 
02:20	40.9	40.9	40.9	91	38.5	0	0	---	0.00	30.058 
02:25	40.8	40.8	40.8	92	38.7	0	0	---	0.00	30.058 
02:30	40.8	40.8	40.8	92	38.7	0	0	---	0.00	30.057 
02:35	40.6	40.6	40.6	92	38.5	0	0	---	0.00	30.055 
02:40	40.5	40.5	40.5	92	38.4	0	0	---	0.00	30.050 
02:45	40.5	40.5	40.5	92	38.4	0	0	---	0.00	30.049 
02:50	40.5	40.5	40.5	92	38.4	0	0	---	0.00	30.048 
02:55	40.5	40.5	40.5	92	38.4	0	0	---	0.00	30.047 
03:00	40.3	40.3	40.3	92	38.2	0	0	---	0.00	30.046 
03:05	40.2	40.2	40.2	92	38.1	0	0	---	0.00	30.048 
03:10	40.2	40.2	40.2	92	38.1	0	0	---	0.00	30.047 
03:15	40.1	40.1	40.1	92	38.0	0	0	---	0.00	30.046 
03:20	39.9	39.9	39.9	92	37.8	0	0	---	0.00	30.045 
03:25	39.9	39.9	39.9	93	38.0	0	0	---	0.00	30.045 
03:30	39.8	39.8	39.8	92	37.7	0	0	---	0.00	30.047 
03:35	39.8	39.8	39.8	93	37.9	0	0	---	0.00	30.050 
03:40	39.8	39.8	39.8	93	37.9	0	0	---	0.00	30.051 
03:45	39.8	39.8	39.8	93	37.9	0	0	---	0.00	30.052 
03:50	39.8	39.8	39.8	93	37.9	0	0	---	0.00	30.053 
03:55	39.6	39.6	39.6	93	37.7	0	0	---	0.00	30.053 
04:00	39.6	39.6	39.6	93	37.7	0	0	---	0.00	30.054 
04:05	39.6	39.6	39.6	93	37.7	0	0	---	0.00	30.054 
04:10	39.5	39.5	39.5	93	37.6	0	0	---	0.00	30.056 
04:15	39.5	39.5	39.5	93	37.6	0	0	---	0.00	30.057 
04:20	39.3	39.3	39.3	93	37.4	0	0	---	0.00	30.060 
04:25	39.3	39.3	39.3	93	37.4	0	0	---	0.00	30.060 
04:30	39.2	39.2	39.2	93	37.3	0	0	---	0.00	30.061 
04:35	39.1	39.1	39.1	93	37.2	0	0	---	0.00	30.062 
04:40	39.1	39.1	39.1	93	37.2	0	0	---	0.00	30.062 
04:45	38.9	38.9	38.9	93	37.1	0	0	---	0.00	30.063 
04:50	39.1	39.1	39.1	94	37.5	0	0	---	0.00	30.063 
04:55	39.1	39.1	39.1	94	37.5	0	0	---	0.00	30.063 
05:00	39.1	39.1	39.1	94	37.5	0	0	---	0.00	30.064 
05:05	39.1	39.1	39.1	94	37.5	0	0	---	0.00	30.071 
05:10	38.9	38.9	38.9	94	37.3	0	0	---	0.00	30.072 
05:15	38.9	38.9	38.9	94	37.3	0	0	---	0.00	30.072 
05:20	38.9	38.9	38.9	94	37.3	0	0	---	0.00	30.075 
05:25	38.8	38.8	38.8	94	37.2	0	0	---	0.00	30.074 
05:30	38.8	38.8	38.8	94	37.2	0	0	---	0.00	30.074 
05:35	38.8	38.8	38.8	94	37.2	0	0	---	0.00	30.075 
05:40	38.6	38.6	38.6	94	37.0	0	0	---	0.00	30.074 
05:45	38.6	38.6	38.6	94	37.0	0	0	---	0.00	30.072 
05:50	38.5	38.5	38.5	94	36.9	0	0	---	0.00	30.072 
05:55	38.6	38.6	38.6	94	37.0	0	0	---	0.00	30.072 
06:00	38.5	38.5	38.5	94	36.9	0	0	---	0.00	30.071 
06:05	38.5	38.5	38.5	94	36.9	0	0	---	0.00	30.076 
06:10	38.5	38.5	38.5	94	36.9	0	0	---	0.00	30.076 
06:15	38.5	38.5	38.5	94	36.9	0	0	---	0.00	30.076 
06:20	38.5	38.5	38.5	94	36.9	0	0	---	0.00	30.077 
06:25	38.5	38.5	38.5	94	36.9	0	0	---	0.00	30.076 
06:30	38.3	38.3	38.3	94	36.7	0	0	---	0.00	30.076 
06:35	38.2	38.2	38.2	94	36.6	0	0	---	0.00	30.076 
06:40	38.2	38.2	38.2	94	36.6	0	0	---	0.00	30.076 
06:45	38.0	38.0	38.0	94	36.4	0	0	---	0.00	30.076 
06:50	38.0	38.0	38.0	94	36.4	0	0	---	0.00	30.077 
06:55	38.0	38.0	38.0	95	36.7	0	0	---	0.00	30.078 
07:00	37.9	37.9	37.9	95	36.6	0	0	---	0.00	30.078 
07:05	37.8	37.8	37.8	95	36.5	0	0	---	0.00	30.082 
07:10	37.8	37.8	37.8	95	36.5	0	0	---	0.00	30.081 
07:15	37.8	37.8	37.8	95	36.5	0	0	---	0.00	30.083 
07:20	37.8	37.8	37.8	95	36.5	0	0	---	0.00	30.086 
07:25	37.8	37.8	37.8	95	36.5	0	0	---	0.00	30.086 
07:30	37.8	37.8	37.8	95	36.5	0	0	---	0.00	30.086 
07:35	37.9	37.9	37.9	95	36.6	0	0	---	0.00	30.087 
07:40	37.9	37.9	37.9	95	36.6	0	0	---	0.00	30.090 
07:45	38.0	38.0	38.0	95	36.7	0	0	---	0.00	30.089 
07:50	38.2	38.2	38.2	95	36.9	0	0	---	0.00	30.089 
07:55	38.3	38.3	38.3	95	37.0	0	0	---	0.00	30.089 
08:00	38.6	38.6	38.6	95	37.3	0	0	---	0.00	30.091 
08:05	39.1	39.1	39.1	95	37.8	0	0	---	0.00	30.093 
08:10	39.6	39.6	39.6	95	38.3	0	0	---	0.00	30.095 
08:15	40.9	40.9	40.9	96	39.8	0	1	45	0.00	30.093 
08:20	42.1	42.1	42.1	96	41.0	0	0	---	0.00	30.093 
08:25	43.1	43.1	43.1	96	42.0	0	0	---	0.00	30.091 
08:30	44.1	44.1	44.1	97	43.3	0	0	---	0.00	30.092 
08:35	44.9	44.9	44.9	96	43.8	0	0	---	0.00	30.090 
08:40	45.4	45.4	45.4	96	44.3	0	1	0	0.00	30.090 
08:45	46.0	46.0	46.0	92	43.8	0	1	0	0.00	30.090 
08:50	46.8	46.8	46.8	89	43.7	0	0	---	0.00	30.090 
08:55	47.7	47.7	47.7	85	43.4	0	1	45	0.00	30.087 
09:00	48.6	48.6	48.6	80	42.7	0	1	45	0.00	30.085 
09:05	49.6	49.6	49.6	75	42.0	0	1	45	0.00	30.086 
09:10	50.7	50.7	50.7	74	42.7	0	2	45	0.00	30.086 
09:15	51.6	51.6	51.6	71	42.5	0	1	45	0.00	30.083 
09:20	52.8	52.8	52.8	69	42.9	0	1	45	0.00	30.083 
09:25	53.8	53.8	53.8	67	43.1	0	0	---	0.00	30.079 
09:30	54.5	54.5	54.5	64	42.6	0	1	45	0.00	30.077 
09:35	55.3	55.3	55.3	62	42.5	0	3	45	0.00	30.078 
09:40	56.0	56.0	56.0	62	43.2	0	3	248	0.00	30.076 
09:45	56.6	56.6	56.6	61	43.3	0	1	248	0.00	30.075 
09:50	57.3	57.3	57.3	59	43.1	0	1	248	0.00	30.076 
09:55	57.5	57.5	57.5	60	43.7	0	1	248	0.00	30.078 
10:00	58.0	58.0	58.0	59	43.8	0	0	---	0.00	30.075 
10:05	58.4	58.4	58.4	58	43.7	0	1	248	0.00	30.075 
10:10	59.0	59.0	59.0	57	43.8	0	2	248	0.00	30.072 
10:15	59.5	59.5	59.5	56	43.8	0	1	248	0.00	30.071 
10:20	59.6	59.6	59.6	57	44.3	0	3	248	0.00	30.071 
10:25	60.1	60.1	60.1	56	44.3	0	2	248	0.00	30.071 
10:30	60.5	60.5	60.5	56	44.7	0	1	248	0.00	30.070 
10:35	61.2	61.2	61.2	55	44.9	0	1	248	0.00	30.070 
10:40	61.8	61.8	61.8	52	44.0	0	2	225	0.00	30.068 
10:45	62.6	62.6	62.6	50	43.7	1	4	202	0.00	30.068 
10:50	63.1	63.1	63.1	50	44.2	1	3	248	0.00	30.068 
10:55	63.5	63.5	63.5	49	44.0	1	5	225	0.00	30.067 
11:00	63.9	63.9	63.9	47	43.3	0	3	292	0.00	30.064 
11:05	64.3	64.3	64.3	46	43.1	0	2	248	0.00	30.066 
11:10	64.8	64.8	64.8	48	44.6	0	3	202	0.00	30.063 
11:15	65.2	65.2	65.2	48	45.0	0	2	180	0.00	30.062 
11:20	65.6	65.6	65.6	46	44.3	1	4	112	0.00	30.062 
11:25	66.1	66.1	66.1	46	44.7	0	1	90	0.00	30.061 
11:30	66.6	66.6	66.6	44	44.0	1	3	270	0.00	30.061 
11:35	66.8	66.8	66.8	44	44.2	1	3	270	0.00	30.059 
11:40	67.1	67.1	67.1	44	44.5	1	3	248	0.00	30.056 
11:45	67.4	67.4	67.4	44	44.7	1	4	90	0.00	30.053 
11:50	67.8	67.8	67.8	43	44.5	1	3	315	0.00	30.050 
11:55	68.1	68.1	68.1	41	43.5	1	4	248	0.00	30.048 
12:00	68.4	68.4	68.4	42	44.4	1	5	112	0.00	30.044 
12:05	68.6	68.6	68.6	40	43.3	1	4	270	0.00	30.043 
12:10	68.8	68.8	68.8	42	44.8	1	4	248	0.00	30.039 
12:15	68.9	68.9	68.9	41	44.2	1	4	292	0.00	30.033 
12:20	69.3	69.3	69.3	40	43.9	1	4	248	0.00	30.031 
12:25	69.4	69.4	69.4	41	44.7	2	7	270	0.00	30.028 
12:30	69.8	69.8	69.8	40	44.4	1	3	248	0.00	30.025 
12:35	70.1	70.1	70.1	39	44.0	1	4	248	0.00	30.024 
12:40	70.3	70.3	70.3	38	43.5	1	4	270	0.00	30.023 
12:45	70.6	70.6	70.6	37	43.1	1	4	225	0.00	30.021 
12:50	70.6	70.6	70.6	35	41.6	3	7	248	0.00	30.022 
12:55	70.8	70.8	70.8	36	42.5	1	6	248	0.00	30.018 
13:00	70.9	70.9	70.9	36	42.6	1	7	248	0.00	30.014 
13:05	70.9	70.9	70.9	37	43.3	1	3	112	0.00	30.012 
13:10	70.9	70.9	70.9	35	41.9	1	4	248	0.00	30.011 
13:15	71.1	71.1	71.1	37	43.5	1	5	248	0.00	30.010 
13:20	71.1	71.1	71.1	35	42.0	1	4	90	0.00	30.009 
13:25	71.1	71.1	71.1	34	41.3	3	9	248	0.00	30.008 
13:30	71.3	71.3	71.3	35	42.2	2	7	248	0.00	30.002 
13:35	71.5	71.5	71.5	32	40.1	3	7	248	0.00	30.001 
13:40	71.5	71.5	71.5	35	42.4	1	4	270	0.00	29.998 
13:45	71.6	71.6	71.6	34	41.7	1	3	248	0.00	29.996 
13:50	71.8	71.8	71.8	34	41.9	0	3	248	0.00	29.995 
13:55	71.8	71.8	71.8	33	41.1	1	4	248	0.00	29.994 
14:00	71.6	71.6	71.6	32	40.2	1	5	338	0.00	29.989 
14:05	71.6	71.6	71.6	35	42.5	1	7	90	0.00	29.987 
14:10	71.6	71.6	71.6	32	40.2	1	5	270	0.00	29.984 
14:15	71.6	71.6	71.6	32	40.2	1	6	248	0.00	29.981 
14:20	71.8	71.8	71.8	33	41.1	0	2	248	0.00	29.979 
14:25	71.8	71.8	71.8	32	40.3	2	6	90	0.00	29.980 
14:30	71.8	71.8	71.8	32	40.3	1	4	90	0.00	29.980 
14:35	71.8	71.8	71.8	32	40.3	1	5	248	0.00	29.980 
14:40	71.8	71.8	71.8	31	39.5	1	3	90	0.00	29.978 
14:45	72.0	72.0	72.0	29	38.0	1	4	90	0.00	29.977 
14:50	72.0	72.0	72.0	31	39.7	1	7	90	0.00	29.975 
14:55	72.1	72.1	72.1	30	38.9	2	6	248	0.00	29.972 
15:00	72.5	72.5	72.5	31	40.1	1	5	248	0.00	29.971 
15:05	72.3	72.3	72.3	27	36.4	2	9	45	0.00	29.971 
15:10	72.3	72.3	72.3	28	37.4	1	5	90	0.00	29.969 
15:15	72.3	72.3	72.3	28	37.4	2	6	112	0.00	29.967 
15:20	72.3	72.3	72.3	29	38.3	0	4	180	0.00	29.968 
15:25	72.3	72.3	72.3	29	38.3	1	9	270	0.00	29.968 
15:30	72.1	72.1	72.1	29	38.1	1	3	90	0.00	29.968 
15:35	72.0	72.0	72.0	28	37.1	1	4	68	0.00	29.966 
15:40	71.8	71.8	71.8	28	36.9	1	3	90	0.00	29.965 
15:45	71.8	71.8	71.8	31	39.5	1	6	90	0.00	29.965 
15:50	71.8	71.8	71.8	28	36.9	1	4	0	0.00	29.964 
15:55	71.6	71.6	71.6	28	36.8	1	5	90	0.00	29.964 
16:00	71.5	71.5	71.5	29	37.6	1	4	90	0.00	29.963 
16:05	71.5	71.5	71.5	29	37.6	0	2	112	0.00	29.964 
16:10	71.3	71.3	71.3	29	37.4	1	5	90	0.00	29.964 
16:15	71.1	71.1	71.1	30	38.1	1	3	90	0.00	29.963 
16:20	70.8	70.8	70.8	31	38.7	0	2	90	0.00	29.963 
16:25	70.6	70.6	70.6	29	36.8	1	3	90	0.00	29.962 
16:30	70.4	70.4	70.4	29	36.6	1	3	112	0.00	29.962 
16:35	70.4	70.4	70.4	29	36.6	0	3	112	0.00	29.962 
16:40	70.3	70.3	70.3	29	36.5	0	2	158	0.00	29.963 
16:45	70.1	70.1	70.1	30	37.2	0	2	292	0.00	29.962 
16:50	69.9	69.9	69.9	30	37.0	1	2	112	0.00	29.963 
16:55	69.8	69.8	69.8	29	36.1	0	2	112	0.00	29.962 
17:00	69.6	69.6	69.6	30	36.8	0	3	90	0.00	29.962 
17:05	69.3	69.3	69.3	30	36.5	0	3	112	0.00	29.961 
17:10	69.1	69.1	69.1	30	36.4	0	3	112	0.00	29.960 
17:15	68.8	68.8	68.8	31	36.9	0	3	112	0.00	29.960 
17:20	68.4	68.4	68.4	31	36.6	0	1	112	0.00	29.963 
17:25	68.1	68.1	68.1	31	36.3	0	2	112	0.00	29.963 
17:30	67.6	67.6	67.6	32	36.7	0	1	112	0.00	29.963 
17:35	67.1	67.1	67.1	32	36.3	0	1	112	0.00	29.964 
17:40	66.6	66.6	66.6	33	36.6	0	1	112	0.00	29.965 
17:45	66.1	66.1	66.1	34	36.9	0	1	112	0.00	29.969 
17:50	65.5	65.5	65.5	36	37.8	0	0	---	0.00	29.969 
17:55	64.7	64.7	64.7	36	37.1	0	1	112	0.00	29.969 
18:00	64.0	64.0	64.0	38	37.9	0	0	---	0.00	29.972 
18:05	63.4	63.4	63.4	39	38.0	0	0	---	0.00	29.972 
18:10	62.6	62.6	62.6	41	38.6	0	0	---	0.00	29.975 
18:15	61.6	61.6	61.6	42	38.3	0	0	---	0.00	29.976 
18:20	60.7	60.7	60.7	43	38.1	0	0	---	0.00	29.979 
18:25	59.9	59.9	59.9	45	38.5	0	0	---	0.00	29.980 
18:30	59.3	59.3	59.3	46	38.5	0	0	---	0.00	29.983 
18:35	58.7	58.7	58.7	46	38.0	0	0	---	0.00	29.986 
18:40	58.1	58.1	58.1	47	38.0	0	0	---	0.00	29.990 
18:45	57.5	57.5	57.5	50	39.0	0	0	---	0.00	29.992 
18:50	56.7	56.7	56.7	50	38.3	0	0	---	0.00	29.993 
18:55	56.2	56.2	56.2	52	38.8	0	0	---	0.00	29.994 
19:00	55.6	55.6	55.6	53	38.7	0	0	---	0.00	29.994 
19:05	55.1	55.1	55.1	54	38.8	0	0	---	0.00	29.994 
19:10	54.5	54.5	54.5	56	39.1	0	0	---	0.00	29.994 
19:15	54.2	54.2	54.2	57	39.3	0	0	---	0.00	29.996 
19:20	53.9	53.9	53.9	58	39.5	0	0	---	0.00	29.996 
19:25	53.5	53.5	53.5	58	39.1	0	0	---	0.00	29.997 
19:30	53.2	53.2	53.2	59	39.2	0	0	---	0.00	29.997 
19:35	52.9	52.9	52.9	59	39.0	0	0	---	0.00	29.997 
19:40	52.5	52.5	52.5	60	39.0	0	0	---	0.00	29.997 
19:45	52.2	52.2	52.2	60	38.7	0	0	---	0.00	29.998 
19:50	51.9	51.9	51.9	62	39.3	0	0	---	0.00	29.999 
19:55	51.4	51.4	51.4	62	38.8	0	0	---	0.00	29.999 
20:00	51.1	51.1	51.1	63	38.9	0	0	---	0.00	29.999 
20:05	50.8	50.8	50.8	63	38.7	0	0	---	0.00	29.990 
20:10	50.7	50.7	50.7	64	39.0	0	0	---	0.00	29.991 
20:15	50.4	50.4	50.4	65	39.1	0	0	---	0.00	29.993 
20:20	50.1	50.1	50.1	65	38.8	0	0	---	0.00	29.993 
20:25	49.8	49.8	49.8	66	38.9	0	0	---	0.00	29.994 
20:30	49.5	49.5	49.5	67	39.0	0	0	---	0.00	29.993 
20:35	49.4	49.4	49.4	67	38.9	0	0	---	0.00	29.993 
20:40	49.1	49.1	49.1	67	38.6	0	0	---	0.00	29.992 
20:45	48.9	48.9	48.9	68	38.8	0	0	---	0.00	29.992 
20:50	48.6	48.6	48.6	69	38.9	0	0	---	0.00	29.991 
20:55	48.5	48.5	48.5	69	38.8	0	0	---	0.00	29.992 
21:00	48.3	48.3	48.3	70	39.0	0	0	---	0.00	29.993 
21:05	48.0	48.0	48.0	70	38.7	0	0	---	0.00	29.984 
21:10	47.9	47.9	47.9	71	39.0	0	0	---	0.00	29.985 
21:15	47.6	47.6	47.6	71	38.7	0	0	---	0.00	29.985 
21:20	47.4	47.4	47.4	72	38.8	0	0	---	0.00	29.985 
21:25	47.3	47.3	47.3	73	39.1	0	0	---	0.00	29.986 
21:30	47.1	47.1	47.1	73	38.9	0	0	---	0.00	29.985 
21:35	47.0	47.0	47.0	74	39.1	0	0	---	0.00	29.986 
21:40	46.8	46.8	46.8	74	39.0	0	0	---	0.00	29.986 
21:45	46.8	46.8	46.8	75	39.3	0	0	---	0.00	29.987 
21:50	46.8	46.8	46.8	75	39.3	0	0	---	0.00	29.987 
21:55	46.8	46.8	46.8	75	39.3	0	0	---	0.00	29.986 
22:00	46.8	46.8	46.8	76	39.6	0	0	---	0.00	29.985 
22:05	47.0	47.0	47.0	77	40.2	0	0	---	0.00	29.980 
22:10	47.0	47.0	47.0	77	40.2	0	0	---	0.00	29.980 
22:15	46.8	46.8	46.8	78	40.3	0	0	---	0.00	29.979 
22:20	46.7	46.7	46.7	78	40.2	0	0	---	0.00	29.978 
22:25	46.8	46.8	46.8	80	41.0	0	0	---	0.00	29.977 
22:30	46.8	46.8	46.8	80	41.0	0	0	---	0.00	29.974 
22:35	46.7	46.7	46.7	80	40.9	0	0	---	0.00	29.974 
22:40	46.5	46.5	46.5	80	40.7	0	0	---	0.00	29.973 
22:45	46.2	46.2	46.2	80	40.4	0	0	---	0.00	29.972 
22:50	46.1	46.1	46.1	81	40.6	0	0	---	0.00	29.971 
22:55	46.0	46.0	46.0	81	40.5	0	0	---	0.00	29.969 
23:00	45.8	45.8	45.8	82	40.6	0	0	---	0.00	29.967 
23:05	45.7	45.7	45.7	82	40.5	0	0	---	0.00	29.964 
23:10	45.5	45.5	45.5	82	40.3	0	0	---	0.00	29.964 
23:15	45.4	45.4	45.4	81	39.9	0	0	---	0.00	29.966 
23:20	45.2	45.2	45.2	81	39.7	0	0	---	0.00	29.965 
23:25	45.1	45.1	45.1	81	39.6	0	0	---	0.00	29.965 
23:30	44.9	44.9	44.9	81	39.4	0	0	---	0.00	29.965 
23:35	44.8	44.8	44.8	81	39.3	0	0	---	0.00	29.965 
23:40	44.6	44.6	44.6	81	39.1	0	0	---	0.00	29.964 
23:45	44.6	44.6	44.6	81	39.1	0	0	---	0.00	29.964 
23:50	44.5	44.5	44.5	81	39.0	0	0	---	0.00	29.963 
23:55	44.3	44.3	44.3	81	38.8	0	0	---	0.00	29.963 

CoCoRaHS
IN-AL-39
A2 Web Hosting
Creative Commons License
GoDaddy
Look for:

loaded 2017-10-19 12:16:34 • last modified 2010-11-18 10:43:29
Privacy PolicyDisclaimer
• wx.awcolley.com is powered by PmWiki v.2002016 •
• all content (unless otherwise noted) © 2017 A W Colley